Time;durP1;ratioP1;P1;durP2;ratioP2;P2;SDS_P1;SDS_P2;PMS_P1;PMS_P2;Temp;Humidity;BMP_temperature;BMP_pressure;BME280_temperature;BME280_humidity;BME280_pressure;Samples;Min_cycle;Max_cycle;Signal;HPM_P1;HPM_P2
2021/07/31 00:01:39;;;;;;;13.40;7.20;;;15.00;99.90;;;;;;5072591;28;20481;-88
2021/07/31 00:04:07;;;;;;;8.73;7.82;;;15.00;99.90;;;;;;5073416;28;20048;-87
2021/07/31 00:06:33;;;;;;;7.38;6.68;;;15.10;99.90;;;;;;5072641;28;20131;-88
2021/07/31 00:09:00;;;;;;;8.13;7.32;;;15.10;99.90;;;;;;5073057;28;20058;-88
2021/07/31 00:11:27;;;;;;;7.90;7.00;;;15.10;99.90;;;;;;5072767;28;20408;-89
2021/07/31 00:13:54;;;;;;;8.73;7.15;;;15.30;99.90;;;;;;5075031;28;20052;-88
2021/07/31 00:16:21;;;;;;;7.90;7.18;;;15.20;99.90;;;;;;5077525;28;20115;-89
2021/07/31 00:18:48;;;;;;;9.82;7.47;;;15.20;99.90;;;;;;5072498;28;20079;-88
2021/07/31 00:21:16;;;;;;;8.55;7.00;;;15.30;99.90;;;;;;5073034;28;20044;-88
2021/07/31 00:23:42;;;;;;;7.57;6.85;;;15.30;99.90;;;;;;5072825;28;20056;-86
2021/07/31 00:26:09;;;;;;;7.88;7.00;;;15.30;99.90;;;;;;5072618;28;20510;-88
2021/07/31 00:28:36;;;;;;;7.80;7.00;;;15.30;99.90;;;;;;5072380;28;20041;-88
2021/07/31 00:31:02;;;;;;;8.63;7.40;;;15.30;99.90;;;;;;5072801;28;20143;-88
2021/07/31 00:33:29;;;;;;;7.90;6.65;;;15.30;99.90;;;;;;5072915;28;20409;-88
2021/07/31 00:35:57;;;;;;;9.30;6.78;;;15.20;99.90;;;;;;5072394;28;20045;-87
2021/07/31 00:38:24;;;;;;;9.30;6.63;;;15.00;99.90;;;;;;5072079;28;20056;-88
2021/07/31 00:40:51;;;;;;;9.80;8.10;;;15.00;99.90;;;;;;5072596;28;20079;-88
2021/07/31 00:43:17;;;;;;;8.88;7.22;;;14.80;99.90;;;;;;5072621;28;20048;-89
2021/07/31 00:45:44;;;;;;;8.30;7.28;;;14.80;99.90;;;;;;5072503;28;20492;-88
2021/07/31 00:48:11;;;;;;;8.23;7.40;;;14.70;99.90;;;;;;5071814;28;20546;-87
2021/07/31 00:50:38;;;;;;;8.90;8.05;;;14.60;99.90;;;;;;5072678;28;20400;-88
2021/07/31 00:53:05;;;;;;;8.30;7.43;;;14.60;99.90;;;;;;5072373;28;20049;-88
2021/07/31 00:55:32;;;;;;;9.93;7.72;;;14.40;99.90;;;;;;5072406;28;20044;-88
2021/07/31 00:57:59;;;;;;;11.57;7.53;;;14.30;99.90;;;;;;5071945;28;20044;-88
2021/07/31 01:00:26;;;;;;;10.25;8.02;;;14.20;99.90;;;;;;5072407;28;20040;-88
2021/07/31 01:02:53;;;;;;;13.30;9.00;;;14.20;99.90;;;;;;5072442;28;20052;-88
2021/07/31 01:05:20;;;;;;;10.13;9.05;;;14.10;99.90;;;;;;5072154;28;20048;-88
2021/07/31 01:07:48;;;;;;;10.18;8.82;;;14.00;99.90;;;;;;5072557;28;20350;-88
2021/07/31 01:10:15;;;;;;;11.27;8.93;;;14.00;99.90;;;;;;5072455;28;20045;-88
2021/07/31 01:12:44;;;;;;;11.85;7.78;;;13.90;99.90;;;;;;5072559;28;20053;-88
2021/07/31 01:15:11;;;;;;;11.93;8.68;;;13.90;99.90;;;;;;5072302;28;20072;-88
2021/07/31 01:17:37;;;;;;;9.50;8.15;;;13.90;99.90;;;;;;5071864;28;20044;-86
2021/07/31 01:20:05;;;;;;;15.88;8.63;;;13.90;99.90;;;;;;5071695;28;20496;-88
2021/07/31 01:22:32;;;;;;;10.27;7.88;;;13.90;99.90;;;;;;5076232;28;20074;-88
2021/07/31 01:25:01;;;;;;;10.85;9.10;;;14.00;99.90;;;;;;5075628;28;20123;-88
2021/07/31 01:27:27;;;;;;;12.43;8.48;;;13.90;99.90;;;;;;5072603;28;20063;-88
2021/07/31 01:29:54;;;;;;;9.38;8.38;;;13.90;99.90;;;;;;5071767;28;20051;-87
2021/07/31 01:32:21;;;;;;;11.70;8.95;;;13.80;99.90;;;;;;5071663;28;20573;-88
2021/07/31 01:34:48;;;;;;;11.60;8.63;;;13.80;99.90;;;;;;5072183;28;20064;-88
2021/07/31 01:37:14;;;;;;;10.27;8.77;;;13.90;99.90;;;;;;5071373;28;20040;-88
2021/07/31 01:39:41;;;;;;;9.82;8.63;;;14.00;99.90;;;;;;5072785;28;20052;-88
2021/07/31 01:42:08;;;;;;;8.98;8.07;;;14.00;99.90;;;;;;5072005;28;20128;-87
2021/07/31 01:44:35;;;;;;;9.50;8.57;;;14.10;99.90;;;;;;5072569;28;20048;-87
2021/07/31 01:47:02;;;;;;;8.73;7.82;;;14.20;99.90;;;;;;5071621;28;20048;-87
2021/07/31 01:49:30;;;;;;;8.02;7.22;;;14.20;99.90;;;;;;5071514;28;20048;-87
2021/07/31 01:51:57;;;;;;;11.07;7.45;;;14.30;99.90;;;;;;5071499;28;20136;-88
2021/07/31 01:54:23;;;;;;;7.88;7.05;;;14.30;99.90;;;;;;5071609;28;20056;-88
2021/07/31 01:56:51;;;;;;;8.15;7.35;;;14.30;99.90;;;;;;5071951;28;20493;-88
2021/07/31 01:59:18;;;;;;;8.82;6.60;;;14.30;99.90;;;;;;5074704;28;20479;-87
2021/07/31 02:01:44;;;;;;;8.15;6.28;;;14.30;99.90;;;;;;5074705;28;20507;-88
2021/07/31 02:04:11;;;;;;;9.10;7.15;;;14.30;99.90;;;;;;5075388;28;20076;-88
2021/07/31 02:06:38;;;;;;;7.88;7.07;;;14.30;99.90;;;;;;5075587;28;20050;-87
2021/07/31 02:09:05;;;;;;;6.85;5.85;;;14.20;99.90;;;;;;5076545;28;20075;-88
2021/07/31 02:11:31;;;;;;;7.25;6.22;;;14.30;99.90;;;;;;5075336;28;20058;-87
2021/07/31 02:13:58;;;;;;;6.88;6.10;;;14.30;99.90;;;;;;5075303;28;20471;-86
2021/07/31 02:16:26;;;;;;;10.27;6.10;;;14.30;99.90;;;;;;5075110;28;20049;-87
2021/07/31 02:18:53;;;;;;;9.13;5.65;;;14.30;99.90;;;;;;5075062;28;20056;-88
2021/07/31 02:21:20;;;;;;;6.80;6.20;;;14.30;99.90;;;;;;5075178;28;20063;-88
2021/07/31 02:23:47;;;;;;;10.45;5.93;;;14.20;99.90;;;;;;5075425;28;20053;-88
2021/07/31 02:26:14;;;;;;;6.90;6.30;;;14.20;99.90;;;;;;5074603;28;20416;-88
2021/07/31 02:28:40;;;;;;;7.80;5.80;;;14.10;99.90;;;;;;5075109;28;20055;-88
2021/07/31 02:31:07;;;;;;;7.45;5.85;;;14.10;99.90;;;;;;5075140;28;20412;-88
2021/07/31 02:33:34;;;;;;;7.57;6.68;;;14.00;99.90;;;;;;5075346;28;20049;-88
2021/07/31 02:36:02;;;;;;;7.70;6.10;;;13.90;99.90;;;;;;5074856;28;20135;-87
2021/07/31 02:38:29;;;;;;;8.50;6.47;;;13.90;99.90;;;;;;5074724;28;20139;-88
2021/07/31 02:40:56;;;;;;;12.63;7.30;;;13.80;99.90;;;;;;5074589;28;20053;-89
2021/07/31 02:43:22;;;;;;;8.57;6.97;;;13.70;99.90;;;;;;5073609;28;20055;-89
2021/07/31 02:45:49;;;;;;;11.73;7.28;;;13.70;99.90;;;;;;5074335;28;20407;-88
2021/07/31 02:48:16;;;;;;;9.50;7.90;;;13.50;99.90;;;;;;5074517;28;20044;-88
2021/07/31 02:50:43;;;;;;;8.65;6.90;;;13.50;99.90;;;;;;5074731;28;20049;-88
2021/07/31 02:53:10;;;;;;;7.78;7.05;;;13.50;99.90;;;;;;5076437;28;20055;-87
2021/07/31 02:55:37;;;;;;;9.15;7.15;;;13.50;99.90;;;;;;5074398;28;20048;-88
2021/07/31 02:58:03;;;;;;;9.52;7.55;;;13.40;99.90;;;;;;5074121;28;20060;-88
2021/07/31 03:00:30;;;;;;;8.38;6.75;;;13.30;99.90;;;;;;5074577;28;20131;-88
2021/07/31 03:02:57;;;;;;;7.18;6.28;;;13.30;99.90;;;;;;5074548;28;20056;-88
2021/07/31 03:05:24;;;;;;;8.30;6.10;;;13.20;99.90;;;;;;5074115;28;20052;-88
2021/07/31 03:07:50;;;;;;;9.27;6.53;;;13.20;99.90;;;;;;5074432;28;20074;-89
2021/07/31 03:10:17;;;;;;;8.55;6.43;;;13.10;99.90;;;;;;5074918;28;20467;-88
2021/07/31 03:12:44;;;;;;;8.90;6.57;;;13.00;99.90;;;;;;5074225;28;20054;-87
2021/07/31 03:15:11;;;;;;;8.30;6.75;;;13.10;99.90;;;;;;5073663;28;20496;-88
2021/07/31 03:17:38;;;;;;;6.75;6.07;;;13.10;99.90;;;;;;5073580;28;20059;-88
2021/07/31 03:20:05;;;;;;;7.85;6.00;;;13.20;99.90;;;;;;5073257;28;20086;-88
2021/07/31 03:22:32;;;;;;;6.47;5.70;;;13.20;99.90;;;;;;5074203;28;20062;-88
2021/07/31 03:24:59;;;;;;;5.97;5.35;;;13.20;99.90;;;;;;5073968;28;20133;-89
2021/07/31 03:27:26;;;;;;;6.32;5.72;;;13.20;99.90;;;;;;5074018;28;20048;-88
2021/07/31 03:29:53;;;;;;;5.13;4.75;;;13.30;99.90;;;;;;5073688;28;20074;-88
2021/07/31 03:32:19;;;;;;;5.90;5.25;;;13.30;99.90;;;;;;5073100;28;20428;-88
2021/07/31 03:34:46;;;;;;;5.72;5.07;;;13.30;99.90;;;;;;5073388;28;20076;-88
2021/07/31 03:37:13;;;;;;;6.70;5.32;;;13.30;99.90;;;;;;5073574;28;20389;-88
2021/07/31 03:39:40;;;;;;;8.75;4.80;;;13.30;99.90;;;;;;5073564;28;20098;-88
2021/07/31 03:42:06;;;;;;;9.20;5.25;;;13.30;99.90;;;;;;5073249;28;20048;-88
2021/07/31 03:44:33;;;;;;;5.93;5.20;;;13.30;99.90;;;;;;5073923;28;20051;-88
2021/07/31 03:47:00;;;;;;;5.30;4.80;;;13.20;99.90;;;;;;5073706;28;20049;-88
2021/07/31 03:49:27;;;;;;;6.82;4.85;;;13.20;99.90;;;;;;5073178;28;20044;-88
2021/07/31 03:51:54;;;;;;;5.90;4.35;;;13.20;99.90;;;;;;5073359;28;20048;-87
2021/07/31 03:54:21;;;;;;;10.27;4.53;;;13.30;99.90;;;;;;5073250;28;20048;-87
2021/07/31 03:56:48;;;;;;;7.45;5.40;;;13.30;99.90;;;;;;5072911;28;20439;-88
2021/07/31 03:59:14;;;;;;;5.13;4.40;;;13.20;99.90;;;;;;5072924;28;20059;-88
2021/07/31 04:01:41;;;;;;;4.68;4.25;;;13.20;99.90;;;;;;5072804;28;20051;-87
2021/07/31 04:04:08;;;;;;;8.02;4.95;;;13.20;99.90;;;;;;5072969;28;20052;-88
2021/07/31 04:06:34;;;;;;;9.20;5.28;;;13.20;99.90;;;;;;5073206;28;20072;-88
2021/07/31 04:09:01;;;;;;;5.60;4.55;;;13.20;99.90;;;;;;5073137;28;20139;-88
2021/07/31 04:11:28;;;;;;;7.25;4.75;;;13.20;99.90;;;;;;5073311;28;20052;-88
2021/07/31 04:13:55;;;;;;;8.95;5.03;;;13.10;99.90;;;;;;5073138;28;20139;-88
2021/07/31 04:16:22;;;;;;;10.55;5.68;;;13.10;99.90;;;;;;5072598;28;20139;-87
2021/07/31 04:18:48;;;;;;;19.00;4.50;;;13.10;99.90;;;;;;5072645;28;20056;-88
2021/07/31 04:21:15;;;;;;;5.65;5.15;;;13.00;99.90;;;;;;5072556;28;20055;-89
2021/07/31 04:23:42;;;;;;;7.20;5.15;;;13.10;99.90;;;;;;5072742;28;20548;-88
2021/07/31 04:26:13;;;;;;;5.50;5.00;;;13.10;99.90;;;;;;5072402;28;20502;-87
2021/07/31 04:28:41;;;;;;;8.63;5.07;;;13.10;99.90;;;;;;5072857;28;20044;-87
2021/07/31 04:31:12;;;;;;;9.05;4.43;;;13.00;99.90;;;;;;5072629;28;20149;-87
2021/07/31 04:33:43;;;;;;;8.45;4.30;;;13.10;99.90;;;;;;5072774;28;20049;-88
2021/07/31 04:36:10;;;;;;;10.45;4.63;;;13.20;99.90;;;;;;5072261;28;20048;-88
2021/07/31 04:38:37;;;;;;;8.93;4.82;;;13.30;99.90;;;;;;5072344;28;20114;-88
2021/07/31 04:41:04;;;;;;;8.05;4.30;;;13.30;99.90;;;;;;5072420;28;20553;-88
2021/07/31 04:43:32;;;;;;;10.15;4.18;;;13.30;99.90;;;;;;5072667;28;20116;-87
2021/07/31 04:46:00;;;;;;;4.18;3.65;;;13.40;99.90;;;;;;5072488;28;20052;-87
2021/07/31 04:48:27;;;;;;;4.50;3.75;;;13.50;99.90;;;;;;5072098;28;20484;-88
2021/07/31 04:50:55;;;;;;;4.60;3.47;;;13.60;99.90;;;;;;5070653;28;20072;-88
2021/07/31 04:53:23;;;;;;;4.32;3.70;;;13.70;99.90;;;;;;5071909;28;20062;-88
2021/07/31 04:55:50;;;;;;;5.43;3.40;;;13.70;99.90;;;;;;5072164;28;20485;-87
2021/07/31 04:58:16;;;;;;;7.82;4.05;;;13.80;99.90;;;;;;5072197;28;20048;-87
2021/07/31 05:00:43;;;;;;;7.38;2.80;;;14.00;99.90;;;;;;5073270;28;20083;-88
2021/07/31 05:03:10;;;;;;;13.02;3.72;;;14.10;99.90;;;;;;5072364;28;20048;-87
2021/07/31 05:05:37;;;;;;;4.57;2.80;;;14.20;99.90;;;;;;5072467;28;20036;-88
2021/07/31 05:08:04;;;;;;;6.50;2.72;;;14.30;99.90;;;;;;5072062;28;20054;-86
2021/07/31 05:10:31;;;;;;;7.35;3.10;;;14.50;99.90;;;;;;5072235;28;20052;-88
2021/07/31 05:12:58;;;;;;;4.10;2.70;;;14.60;99.90;;;;;;5072239;28;20045;-88
2021/07/31 05:15:25;;;;;;;3.92;1.88;;;14.90;99.90;;;;;;5071848;28;20067;-88
2021/07/31 05:17:52;;;;;;;6.43;2.33;;;15.20;99.90;;;;;;5072332;28;20079;-88
2021/07/31 05:20:18;;;;;;;4.18;1.83;;;15.60;99.90;;;;;;5072674;28;20472;-89
2021/07/31 05:22:45;;;;;;;2.30;1.60;;;16.00;99.90;;;;;;5072326;28;20052;-90
2021/07/31 05:25:12;;;;;;;3.05;1.83;;;16.40;99.90;;;;;;5072036;28;20489;-88
2021/07/31 05:27:38;;;;;;;3.20;1.52;;;17.00;99.90;;;;;;5072191;28;20181;-89
2021/07/31 05:30:06;;;;;;;4.05;1.48;;;17.80;99.90;;;;;;5074377;28;20052;-89
2021/07/31 05:32:34;;;;;;;3.13;1.20;;;19.10;99.90;;;;;;5076493;28;20100;-89
2021/07/31 05:35:01;;;;;;;2.90;1.42;;;20.40;99.90;;;;;;5076771;28;20048;-89
2021/07/31 05:37:31;;;;;;;4.50;1.50;;;21.40;99.90;;;;;;5075986;28;20052;-88
2021/07/31 05:39:59;;;;;;;4.47;1.67;;;22.40;99.90;;;;;;5075020;28;20048;-88
2021/07/31 05:42:27;;;;;;;2.28;1.15;;;23.10;99.90;;;;;;5075682;28;20477;-89
2021/07/31 05:44:55;;;;;;;3.70;1.30;;;23.40;99.90;;;;;;5075444;28;20044;-88
2021/07/31 05:47:24;;;;;;;2.45;1.40;;;23.50;99.90;;;;;;5075128;28;20044;-89
2021/07/31 05:49:51;;;;;;;3.67;1.45;;;23.50;99.90;;;;;;5075017;28;20051;-88
2021/07/31 05:52:18;;;;;;;5.53;1.23;;;23.50;99.90;;;;;;5055420;28;20182;-88
2021/07/31 05:54:45;;;;;;;3.53;1.35;;;23.90;99.90;;;;;;5055665;28;20055;-89
2021/07/31 05:57:11;;;;;;;5.50;1.67;;;23.90;99.90;;;;;;5066712;28;20544;-88
2021/07/31 05:59:38;;;;;;;3.35;1.20;;;24.20;98.60;;;;;;5089879;28;20489;-87
2021/07/31 06:02:06;;;;;;;3.88;1.35;;;24.40;99.10;;;;;;5075617;28;20052;-88
2021/07/31 06:04:34;;;;;;;5.47;0.98;;;24.40;97.30;;;;;;5075658;28;20056;-83
2021/07/31 06:07:00;;;;;;;3.85;1.23;;;23.90;97.20;;;;;;5076976;28;20553;-92
2021/07/31 06:09:27;;;;;;;4.32;1.25;;;23.30;98.30;;;;;;5077170;28;20135;-89
2021/07/31 06:11:54;;;;;;;1.25;0.85;;;23.90;99.50;;;;;;5075840;28;20053;-87
2021/07/31 06:14:20;;;;;;;10.02;1.40;;;24.80;96.90;;;;;;5075432;28;20067;-85
2021/07/31 06:16:47;;;;;;;2.17;1.23;;;24.70;95.20;;;;;;5075201;28;20408;-87
2021/07/31 06:19:14;;;;;;;4.60;1.52;;;24.20;95.80;;;;;;5074884;28;20064;-88
2021/07/31 06:21:41;;;;;;;2.30;1.10;;;24.60;96.90;;;;;;5076155;28;20045;-84
2021/07/31 06:24:08;;;;;;;6.68;1.65;;;24.10;95.10;;;;;;5074999;28;20052;-89
2021/07/31 06:26:35;;;;;;;6.30;1.10;;;23.30;96.60;;;;;;5074645;28;20053;-89
2021/07/31 06:29:01;;;;;;;7.60;1.10;;;22.80;97.50;;;;;;5074618;28;20041;-87
2021/07/31 06:31:28;;;;;;;4.43;1.38;;;22.50;98.80;;;;;;5074364;28;20609;-89
2021/07/31 06:33:57;;;;;;;8.00;1.30;;;22.50;99.00;;;;;;5074790;28;20040;-92
2021/07/31 06:36:23;;;;;;;2.72;1.10;;;22.80;97.40;;;;;;5075361;28;20107;-90
2021/07/31 06:38:50;;;;;;;2.75;1.00;;;22.90;97.10;;;;;;5074256;28;20045;-86
2021/07/31 06:41:17;;;;;;;3.03;1.20;;;23.50;97.20;;;;;;5075363;28;20053;-87
2021/07/31 06:43:43;;;;;;;8.82;1.20;;;23.90;95.20;;;;;;5073726;28;20059;-86
2021/07/31 06:46:15;;;;;;;5.07;1.25;;;23.60;95.60;;;;;;5073555;28;20048;-85
2021/07/31 06:48:42;;;;;;;3.83;1.10;;;25.20;94.60;;;;;;5073889;28;20492;-87
2021/07/31 06:51:10;;;;;;;5.72;0.95;;;26.30;91.80;;;;;;5086822;28;20131;-89
2021/07/31 06:53:37;;;;;;;10.85;1.50;;;27.00;86.30;;;;;;5074074;28;20112;-90
2021/07/31 06:56:04;;;;;;;3.20;0.85;;;26.20;85.60;;;;;;5073143;28;20131;-89
2021/07/31 06:58:30;;;;;;;3.20;0.90;;;26.70;85.20;;;;;;5074259;28;20052;-86
2021/07/31 07:00:57;;;;;;;5.20;0.80;;;26.20;81.50;;;;;;5075258;28;20131;-89
2021/07/31 07:03:24;;;;;;;6.38;1.10;;;26.30;82.30;;;;;;5073706;28;20059;-86
2021/07/31 07:05:51;;;;;;;12.95;0.98;;;26.90;80.50;;;;;;5072813;28;20394;-87
2021/07/31 07:08:17;;;;;;;1.25;0.52;;;26.20;78.60;;;;;;5074428;28;20504;-88
2021/07/31 07:10:44;;;;;;;6.20;0.80;;;26.20;77.30;;;;;;5074497;28;20040;-88
2021/07/31 07:13:31;;;;;;;3.60;0.77;;;26.20;78.70;;;;;;5074268;28;20060;-87
2021/07/31 07:16:02;;;;;;;2.70;0.95;;;26.40;77.50;;;;;;5074104;28;20054;-88
2021/07/31 07:18:29;;;;;;;3.25;0.90;;;26.80;76.70;;;;;;5073865;28;20051;-89
2021/07/31 07:20:56;;;;;;;1.40;0.50;;;27.00;75.20;;;;;;5072971;28;20155;-91
2021/07/31 07:23:23;;;;;;;2.72;0.57;;;27.20;71.60;;;;;;5073986;28;20484;-88
2021/07/31 07:25:49;;;;;;;1.90;0.50;;;26.80;73.10;;;;;;5073840;28;20117;-90
2021/07/31 07:28:16;;;;;;;0.75;0.50;;;27.50;73.30;;;;;;5074542;28;20289;-88
2021/07/31 07:30:43;;;;;;;3.55;0.63;;;27.50;70.00;;;;;;5073602;28;20074;-88
2021/07/31 07:33:10;;;;;;;3.75;0.70;;;27.70;71.30;;;;;;5073213;28;20056;-86
2021/07/31 07:35:37;;;;;;;3.45;0.60;;;28.00;71.30;;;;;;5073941;28;20503;-83
2021/07/31 07:38:03;;;;;;;6.43;0.50;;;28.90;67.10;;;;;;5075092;28;20481;-91
2021/07/31 07:40:30;;;;;;;1.38;0.40;;;27.90;68.00;;;;;;5073614;28;20075;-93
2021/07/31 07:42:57;;;;;;;0.47;0.40;;;28.00;68.50;;;;;;5075178;28;20495;-89
2021/07/31 07:45:23;;;;;;;2.00;0.60;;;28.80;67.50;;;;;;5074036;28;20048;-85
2021/07/31 07:47:50;;;;;;;1.20;0.50;;;29.50;65.80;;;;;;5074625;28;20049;-89
2021/07/31 07:50:17;;;;;;;2.17;0.40;;;29.20;64.20;;;;;;5073632;28;20067;-88
2021/07/31 07:52:43;;;;;;;2.13;0.68;;;29.70;63.20;;;;;;5074585;28;20052;-86
2021/07/31 07:55:11;;;;;;;4.65;0.70;;;29.30;64.30;;;;;;5073028;28;20049;-88
2021/07/31 07:57:41;;;;;;;0.88;0.60;;;30.20;62.10;;;;;;5074701;28;20104;-87
2021/07/31 08:00:08;;;;;;;3.47;0.70;;;29.90;61.10;;;;;;5074034;28;20481;-86
2021/07/31 08:02:35;;;;;;;4.45;0.60;;;30.50;60.70;;;;;;5073584;28;20084;-92
2021/07/31 08:05:02;;;;;;;5.45;0.70;;;30.00;60.70;;;;;;5073950;28;20064;-85
2021/07/31 08:07:29;;;;;;;0.90;0.80;;;29.80;60.20;;;;;;5073771;28;20044;-87
2021/07/31 08:09:56;;;;;;;4.07;1.10;;;29.80;59.50;;;;;;5084092;28;20112;-89
2021/07/31 08:12:23;;;;;;;1.17;0.60;;;29.50;61.00;;;;;;5077351;28;20075;-88
2021/07/31 08:14:50;;;;;;;2.78;0.65;;;30.20;59.90;;;;;;5073962;28;20135;-91
2021/07/31 08:17:19;;;;;;;2.78;0.68;;;30.00;59.30;;;;;;5073630;28;20076;-86
2021/07/31 08:19:46;;;;;;;4.72;0.88;;;29.90;59.70;;;;;;5072699;28;20082;-84
2021/07/31 08:22:12;;;;;;;1.50;0.63;;;30.10;59.90;;;;;;5073341;28;20093;-88
2021/07/31 08:24:39;;;;;;;1.38;1.00;;;30.80;58.80;;;;;;5073499;28;20139;-92
2021/07/31 08:27:06;;;;;;;1.48;0.90;;;31.20;59.20;;;;;;5073220;28;20040;-84
2021/07/31 08:29:33;;;;;;;1.85;0.98;;;31.10;57.30;;;;;;5072548;28;20055;-86
2021/07/31 08:32:00;;;;;;;1.40;0.80;;;32.70;57.30;;;;;;5072638;28;20060;-86
2021/07/31 08:34:27;;;;;;;3.08;0.90;;;33.20;54.60;;;;;;5072570;28;20053;-84
2021/07/31 08:36:53;;;;;;;5.03;0.60;;;32.70;55.00;;;;;;5074758;28;20052;-88
2021/07/31 08:39:20;;;;;;;2.25;0.80;;;32.20;56.10;;;;;;5077513;28;20115;-88
2021/07/31 08:41:47;;;;;;;1.70;0.80;;;31.40;56.00;;;;;;5073459;28;20519;-90
2021/07/31 08:44:14;;;;;;;0.80;0.77;;;31.50;56.20;;;;;;5073708;28;20135;-89
2021/07/31 08:46:43;;;;;;;2.50;0.63;;;31.60;55.90;;;;;;5073357;28;20070;-90
2021/07/31 08:49:13;;;;;;;2.13;0.77;;;33.60;54.10;;;;;;5073156;28;20045;-88
2021/07/31 08:51:43;;;;;;;4.25;0.80;;;33.00;53.40;;;;;;5074917;28;20136;-89
2021/07/31 08:54:10;;;;;;;2.95;0.80;;;33.30;52.80;;;;;;5072854;28;20050;-90
2021/07/31 08:56:41;;;;;;;2.20;0.68;;;34.10;53.50;;;;;;5072628;28;20048;-88
2021/07/31 08:59:08;;;;;;;1.60;0.90;;;34.70;52.80;;;;;;5073060;28;20131;-88
2021/07/31 09:01:35;;;;;;;0.90;0.40;;;35.80;51.70;;;;;;5073023;28;20052;-88
2021/07/31 09:04:14;;;;;;;4.72;0.90;;;35.40;50.70;;;;;;5073285;28;20059;-84
2021/07/31 09:06:42;;;;;;;0.90;0.70;;;34.90;49.50;;;;;;5072583;28;20056;-91
2021/07/31 09:09:09;;;;;;;2.58;1.00;;;33.20;51.50;;;;;;5075699;28;20079;-88
2021/07/31 09:12:05;;;;;;;1.60;0.57;;;33.50;51.80;;;;;;5077466;28;20052;-87
2021/07/31 09:14:34;;;;;;;2.45;1.05;;;33.30;51.80;;;;;;5078242;28;20623;-87
2021/07/31 09:17:01;;;;;;;1.75;0.80;;;32.30;53.00;;;;;;5078530;28;20056;-92
2021/07/31 09:19:29;;;;;;;2.40;0.90;;;32.60;52.40;;;;;;5077456;28;20476;-86
2021/07/31 09:22:07;;;;;;;5.25;1.40;;;32.00;52.40;;;;;;5076901;28;20048;-87
2021/07/31 09:24:35;;;;;;;3.75;0.98;;;31.30;53.70;;;;;;5076968;28;20060;-90
2021/07/31 09:27:01;;;;;;;7.45;1.85;;;31.40;53.00;;;;;;5076543;28;20535;-87
2021/07/31 09:29:38;;;;;;;2.25;0.70;;;31.40;52.80;;;;;;5086036;28;20076;-90
2021/07/31 09:32:06;;;;;;;1.95;0.80;;;32.20;53.40;;;;;;5083394;28;20051;-92
2021/07/31 09:34:34;;;;;;;2.08;0.80;;;32.20;52.70;;;;;;5076744;28;20507;-88
2021/07/31 09:37:14;;;;;;;1.23;0.70;;;31.80;53.10;;;;;;5076582;28;20071;-88
2021/07/31 09:39:52;;;;;;;2.63;0.80;;;33.10;51.70;;;;;;5076139;28;20046;-91
2021/07/31 09:42:39;;;;;;;2.80;1.02;;;33.10;51.10;;;;;;5077102;28;20051;-89
2021/07/31 09:45:14;;;;;;;5.32;0.70;;;31.90;51.80;;;;;;5078063;28;20072;-90
2021/07/31 09:48:01;;;;;;;2.50;0.82;;;31.60;52.40;;;;;;5076617;28;20136;-92
2021/07/31 09:50:49;;;;;;;3.63;1.10;;;30.90;53.00;;;;;;5075967;28;20614;-88
2021/07/31 09:53:21;;;;;;;3.15;0.80;;;30.40;54.40;;;;;;5076505;28;20485;-91
2021/07/31 09:55:49;;;;;;;3.83;1.00;;;31.40;53.90;;;;;;5076129;28;20432;-92
2021/07/31 09:58:19;;;;;;;10.00;1.20;;;31.70;54.00;;;;;;5079921;28;20036;-94
2021/07/31 10:00:50;;;;;;;4.22;0.90;;;30.70;53.40;;;;;;5076077;28;20076;-93
2021/07/31 10:03:17;;;;;;;1.75;0.77;;;31.20;52.90;;;;;;5074935;28;20546;-92
2021/07/31 10:05:45;;;;;;;3.17;0.90;;;31.60;52.60;;;;;;5076512;28;20052;-85
2021/07/31 10:08:35;;;;;;;3.17;1.10;;;32.20;51.60;;;;;;5075645;28;20037;-91
2021/07/31 10:11:02;;;;;;;0.63;0.63;;;32.00;52.90;;;;;;5076046;28;20147;-91
2021/07/31 10:13:29;;;;;;;2.00;0.80;;;33.30;52.30;;;;;;5075683;28;20123;-87
2021/07/31 10:15:56;;;;;;;1.85;0.68;;;32.70;51.50;;;;;;5075511;28;20143;-87
2021/07/31 10:18:26;;;;;;;5.82;0.80;;;32.40;51.80;;;;;;5075036;28;20053;-87
2021/07/31 10:20:53;;;;;;;8.77;0.80;;;31.80;53.00;;;;;;5074994;28;20044;-86
2021/07/31 10:23:58;;;;;;;3.15;0.80;;;32.80;52.50;;;;;;5075253;28;20044;-87
2021/07/31 10:26:25;;;;;;;1.77;0.50;;;32.10;51.90;;;;;;5072481;28;20167;-88
2021/07/31 10:28:52;;;;;;;1.48;0.90;;;33.90;50.80;;;;;;5075557;28;20047;-91
2021/07/31 10:31:33;;;;;;;5.28;1.20;;;33.50;49.80;;;;;;5076028;28;20052;-87
2021/07/31 10:34:00;;;;;;;2.78;0.50;;;32.90;51.40;;;;;;5075303;28;20053;-92
2021/07/31 10:36:35;;;;;;;2.13;0.80;;;31.70;52.10;;;;;;5076145;28;20075;-87
2021/07/31 10:39:27;;;;;;;4.10;0.98;;;32.20;51.80;;;;;;5075401;28;20417;-89
2021/07/31 10:41:59;;;;;;;1.42;0.60;;;30.40;52.70;;;;;;5074909;28;20044;-87
2021/07/31 10:44:27;;;;;;;2.60;0.60;;;31.10;53.90;;;;;;5075141;28;20083;-87
2021/07/31 10:47:15;;;;;;;1.88;0.88;;;32.40;52.20;;;;;;5075292;28;20045;-90
2021/07/31 10:49:42;;;;;;;1.00;0.60;;;30.80;53.50;;;;;;5087977;28;20053;-89
2021/07/31 10:52:09;;;;;;;1.88;0.85;;;30.80;54.10;;;;;;5082220;28;20053;-89
2021/07/31 10:54:59;;;;;;;1.35;0.60;;;30.20;53.80;;;;;;5075657;28;20055;-89
2021/07/31 10:57:54;;;;;;;1.17;0.60;;;31.80;55.30;;;;;;5074737;28;20135;-87
2021/07/31 11:00:24;;;;;;;1.38;0.52;;;33.20;51.00;;;;;;5075110;28;20079;-88
2021/07/31 11:02:57;;;;;;;1.40;0.65;;;33.60;50.80;;;;;;5073483;28;20040;-85
2021/07/31 11:05:25;;;;;;;1.10;0.70;;;32.40;51.00;;;;;;5078415;28;20052;-88
2021/07/31 11:07:58;;;;;;;1.80;0.68;;;31.30;53.20;;;;;;5075058;28;20148;-88
2021/07/31 11:10:44;;;;;;;2.33;0.63;;;30.80;54.40;;;;;;5074764;28;20070;-88
2021/07/31 11:13:34;;;;;;;0.85;0.85;;;30.60;54.30;;;;;;5074839;28;20135;-92
2021/07/31 11:16:04;;;;;;;0.80;0.70;;;31.30;54.10;;;;;;5065214;28;20048;-92
2021/07/31 11:18:34;;;;;;;2.58;0.88;;;31.90;53.30;;;;;;5074748;28;20106;-90
2021/07/31 11:21:27;;;;;;;5.47;0.70;;;32.40;52.20;;;;;;5074430;28;20110;-89
2021/07/31 11:24:00;;;;;;;3.00;0.70;;;30.90;52.00;;;;;;5074034;28;20147;-87
2021/07/31 11:26:38;;;;;;;4.03;0.77;;;30.80;55.20;;;;;;5074028;28;20048;-87
2021/07/31 11:29:07;;;;;;;15.43;13.65;;;31.20;54.70;;;;;;5074376;28;20064;-88
2021/07/31 11:31:34;;;;;;;2.50;2.30;;;31.30;53.80;;;;;;5072897;28;20045;-88
2021/07/31 11:34:08;;;;;;;3.10;2.80;;;30.60;54.60;;;;;;5074262;28;20048;-92
2021/07/31 11:36:36;;;;;;;;;;;30.60;53.70;;;;;;5076128;28;20127;-87
2021/07/31 11:39:07;;;;;;;2.40;1.02;;;29.60;55.40;;;;;;5073921;28;19920;-88
2021/07/31 11:41:39;;;;;;;3.88;1.98;;;29.60;55.90;;;;;;5074925;28;20474;-90
2021/07/31 11:44:06;;;;;;;1.70;0.88;;;29.20;56.10;;;;;;5074125;28;20123;-91
2021/07/31 11:46:45;;;;;;;1.77;0.60;;;28.70;57.70;;;;;;5075115;28;20515;-93
2021/07/31 11:49:24;;;;;;;2.28;1.10;;;28.70;56.70;;;;;;5073841;28;20504;-90
2021/07/31 11:51:53;;;;;;;2.85;1.17;;;27.80;57.60;;;;;;5073598;28;20080;-92
2021/07/31 11:54:20;;;;;;;1.60;1.08;;;27.20;60.50;;;;;;5074404;28;20044;-95
2021/07/31 11:56:48;;;;;;;4.00;1.23;;;26.60;60.20;;;;;;5074837;28;20140;-89
2021/07/31 11:59:29;;;;;;;13.18;9.05;;;26.50;61.20;;;;;;5074632;28;20045;-90
2021/07/31 12:02:00;;;;;;;3.05;1.45;;;26.50;60.40;;;;;;5073770;28;20055;-93
2021/07/31 12:04:42;;;;;;;3.42;3.13;;;26.10;62.10;;;;;;5073329;28;20040;-88
2021/07/31 12:07:10;;;;;;;7.28;3.03;;;25.80;61.00;;;;;;5072454;28;20220;-91
2021/07/31 12:09:38;;;;;;;1.45;1.10;;;25.60;63.00;;;;;;5075405;28;20468;-93
2021/07/31 12:12:23;;;;;;;1.83;0.88;;;25.50;63.10;;;;;;5083718;28;20055;-89
2021/07/31 12:15:09;;;;;;;1.90;0.90;;;25.40;63.90;;;;;;5073764;28;20068;-91
2021/07/31 12:17:39;;;;;;;2.88;0.73;;;25.10;64.40;;;;;;5073135;28;20424;-89
2021/07/31 12:20:07;;;;;;;2.33;0.90;;;24.80;64.60;;;;;;5073082;28;20060;-87
2021/07/31 12:22:35;;;;;;;2.35;1.25;;;24.40;65.80;;;;;;5073383;28;20099;-91
2021/07/31 12:25:14;;;;;;;3.75;0.95;;;24.10;68.80;;;;;;5073341;28;20048;-91
2021/07/31 12:28:00;;;;;;;3.10;0.70;;;24.20;68.80;;;;;;5073666;28;20063;-89
2021/07/31 12:30:30;;;;;;;1.05;0.80;;;24.10;68.60;;;;;;5073044;28;20135;-89
2021/07/31 12:33:02;;;;;;;0.77;0.60;;;24.20;69.60;;;;;;5074672;28;20139;-89
2021/07/31 12:35:34;;;;;;;3.03;0.73;;;24.30;67.10;;;;;;5073875;28;20095;-94
2021/07/31 12:38:05;;;;;;;1.13;0.98;;;24.40;68.00;;;;;;5073900;28;20049;-95
2021/07/31 12:40:32;;;;;;;1.23;0.63;;;24.50;66.40;;;;;;5074074;28;20048;-90
2021/07/31 12:42:59;;;;;;;0.85;0.85;;;24.30;66.70;;;;;;5073886;28;20064;-91
2021/07/31 12:45:29;;;;;;;1.40;1.00;;;24.10;66.70;;;;;;5073284;28;20048;-94
2021/07/31 12:47:55;;;;;;;2.65;0.65;;;24.20;68.70;;;;;;5073800;28;20131;-91
2021/07/31 12:50:22;;;;;;;6.32;1.08;;;24.30;67.40;;;;;;5073369;28;20063;-93
2021/07/31 12:52:49;;;;;;;2.80;0.90;;;24.40;66.50;;;;;;5075982;28;20045;-93
2021/07/31 12:55:17;;;;;;;4.05;1.00;;;24.60;66.10;;;;;;5074119;28;20048;-91